createdAt,value
2023-04-11T00:00:41.389Z,1.80
2023-04-11T00:01:41.438Z,1.30
2023-04-11T00:02:41.571Z,1.20
2023-04-11T00:03:41.625Z,1.40
2023-04-11T00:04:41.392Z,1.50
2023-04-11T00:05:41.301Z,1.50
2023-04-11T00:06:41.274Z,1.30
2023-04-11T00:07:41.274Z,1.70
2023-04-11T00:08:41.246Z,1.60
2023-04-11T00:09:41.257Z,1.80
2023-04-11T00:10:41.521Z,1.50
2023-04-11T00:11:41.219Z,1.80
2023-04-11T00:12:41.207Z,1.70
2023-04-11T00:13:41.198Z,1.90
2023-04-11T00:14:41.256Z,1.50
2023-04-11T00:15:41.213Z,1.40
2023-04-11T00:16:41.198Z,1.60
2023-04-11T00:17:41.236Z,1.80
2023-04-11T00:18:41.158Z,1.20
2023-04-11T00:19:41.204Z,1.50
2023-04-11T00:20:41.159Z,1.60
2023-04-11T00:21:41.131Z,1.80
2023-04-11T00:22:41.102Z,1.50
2023-04-11T00:23:41.089Z,2.20
2023-04-11T00:24:41.111Z,1.70
2023-04-11T00:25:41.092Z,1.70
2023-04-11T00:26:41.061Z,1.80
2023-04-11T00:27:41.063Z,1.80
2023-04-11T00:28:41.041Z,1.70
2023-04-11T00:29:41.089Z,1.40
2023-04-11T00:30:41.034Z,1.60
2023-04-11T00:31:41.100Z,1.30
2023-04-11T00:32:41.054Z,1.50
2023-04-11T00:33:41.178Z,1.30
2023-04-11T00:34:41.002Z,1.50
2023-04-11T00:35:41.142Z,1.30
2023-04-11T00:36:41.030Z,1.50
2023-04-11T00:37:40.945Z,1.30
2023-04-11T00:38:40.928Z,1.60
2023-04-11T00:39:40.932Z,1.50
2023-04-11T00:40:40.933Z,1.50
2023-04-11T00:41:40.903Z,1.40
2023-04-11T00:42:40.916Z,1.40
2023-04-11T00:43:40.886Z,1.30
2023-04-11T00:44:40.868Z,1.30
2023-04-11T00:45:41.106Z,1.30
2023-04-11T00:46:40.849Z,1.10
2023-04-11T00:47:40.899Z,1.30
2023-04-11T00:48:40.825Z,1.20
2023-04-11T00:49:40.838Z,1.30
2023-04-11T00:50:40.795Z,1.00
2023-04-11T00:51:40.825Z,1.30
2023-04-11T00:52:40.793Z,1.00
2023-04-11T00:53:40.771Z,1.30
2023-04-11T00:54:40.776Z,1.20
2023-04-11T00:55:40.765Z,1.30
2023-04-11T00:56:40.750Z,1.20
2023-04-11T00:57:40.747Z,1.30
2023-04-11T00:58:40.723Z,1.20
2023-04-11T00:59:40.718Z,1.10
2023-04-11T01:00:40.698Z,1.10
2023-04-11T01:01:40.791Z,1.30
2023-04-11T01:02:40.730Z,1.20
2023-04-11T01:03:40.772Z,1.00
2023-04-11T01:04:40.677Z,1.30
2023-04-11T01:05:40.660Z,1.00
2023-04-11T01:06:40.659Z,1.40
2023-04-11T01:07:40.637Z,1.10
2023-04-11T01:08:40.615Z,1.30
2023-04-11T01:09:40.617Z,1.00
2023-04-11T01:10:40.605Z,1.20
2023-04-11T01:11:40.616Z,1.10
2023-04-11T01:12:40.579Z,1.30
2023-04-11T01:13:40.599Z,0.90
2023-04-11T01:14:40.575Z,1.40
2023-04-11T01:15:40.547Z,1.30
2023-04-11T01:16:40.618Z,1.40
2023-04-11T01:17:40.539Z,1.40
2023-04-11T01:18:40.514Z,1.60
2023-04-11T01:19:40.535Z,1.30
2023-04-11T01:20:40.515Z,1.70
2023-04-11T01:21:40.506Z,1.60
2023-04-11T01:22:40.485Z,1.60
2023-04-11T01:23:40.463Z,1.80
2023-04-11T01:24:40.462Z,1.60
2023-04-11T01:25:40.447Z,1.60
2023-04-11T01:26:40.464Z,1.50
2023-04-11T01:27:40.431Z,1.60
2023-04-11T01:28:40.420Z,1.40
2023-04-11T01:29:40.408Z,1.70
2023-04-11T01:30:40.449Z,1.90
2023-04-11T01:31:40.415Z,1.70
2023-04-11T01:32:40.403Z,1.50
2023-04-11T01:33:40.375Z,1.50
2023-04-11T01:34:40.386Z,1.50
2023-04-11T01:35:40.367Z,1.50
2023-04-11T01:36:40.347Z,1.40
2023-04-11T01:37:40.342Z,1.60
2023-04-11T01:38:40.310Z,1.50
2023-04-11T01:39:40.300Z,1.80
2023-04-11T01:40:40.291Z,1.30
2023-04-11T01:41:40.806Z,1.50
2023-04-11T01:42:40.261Z,1.60
2023-04-11T01:43:40.326Z,1.40
2023-04-11T01:44:40.242Z,1.40
2023-04-11T01:45:40.263Z,1.70
2023-04-11T01:46:40.263Z,1.60
2023-04-11T01:47:40.321Z,1.40
2023-04-11T01:48:40.244Z,1.60
2023-04-11T01:49:40.199Z,1.10
2023-04-11T01:50:40.182Z,1.30
2023-04-11T01:51:40.203Z,1.20
2023-04-11T01:52:40.172Z,1.70
2023-04-11T01:53:40.150Z,1.40
2023-04-11T01:54:40.140Z,1.90
2023-04-11T01:55:40.177Z,1.30
2023-04-11T01:56:40.119Z,1.50
2023-04-11T01:57:40.119Z,1.50
2023-04-11T01:58:40.101Z,1.80
2023-04-11T01:59:40.094Z,1.20
2023-04-11T02:00:40.086Z,1.20
2023-04-11T02:01:40.159Z,1.30
2023-04-11T02:02:40.169Z,1.10
2023-04-11T02:03:40.144Z,1.30
2023-04-11T02:04:40.064Z,1.10
2023-04-11T02:05:40.026Z,1.50
2023-04-11T02:06:40.031Z,1.10
2023-04-11T02:07:40.048Z,1.60
2023-04-11T02:08:39.983Z,1.30
2023-04-11T02:09:39.990Z,1.60
2023-04-11T02:10:39.983Z,1.50
2023-04-11T02:11:39.992Z,1.50
2023-04-11T02:12:39.945Z,1.30
2023-04-11T02:13:39.957Z,1.30
2023-04-11T02:14:39.926Z,1.40
2023-04-11T02:15:40.007Z,1.40
2023-04-11T02:16:39.944Z,1.40
2023-04-11T02:17:39.939Z,1.50
2023-04-11T02:18:39.889Z,1.40
2023-04-11T02:19:39.879Z,1.30
2023-04-11T02:20:39.872Z,1.60
2023-04-11T02:21:39.878Z,1.30
2023-04-11T02:22:39.842Z,1.60
2023-04-11T02:23:39.839Z,1.50
2023-04-11T02:24:39.818Z,1.50
2023-04-11T02:25:39.813Z,1.40
2023-04-11T02:26:39.845Z,1.50
2023-04-11T02:27:39.795Z,1.40
2023-04-11T02:28:39.782Z,1.40
2023-04-11T02:29:39.784Z,1.30
2023-04-11T02:30:39.859Z,1.50
2023-04-11T02:31:39.916Z,1.30
2023-04-11T02:32:39.782Z,1.10
2023-04-11T02:33:39.758Z,1.20
2023-04-11T02:34:39.718Z,1.10
2023-04-11T02:35:39.762Z,1.30
2023-04-11T02:36:39.702Z,0.90
2023-04-11T02:37:39.877Z,1.20
2023-04-11T02:38:39.676Z,1.20
2023-04-11T02:39:39.681Z,1.10
2023-04-11T02:40:39.673Z,1.20
2023-04-11T02:41:39.673Z,1.00
2023-04-11T02:42:39.632Z,1.20
2023-04-11T02:43:39.642Z,1.00
2023-04-11T02:44:39.640Z,1.60
2023-04-11T02:45:39.614Z,1.20
2023-04-11T02:46:39.663Z,1.40
2023-04-11T02:47:39.654Z,1.30
2023-04-11T02:48:39.572Z,1.40
2023-04-11T02:49:39.586Z,1.00
2023-04-11T02:50:39.555Z,1.00
2023-04-11T02:51:39.564Z,1.10
2023-04-11T02:52:39.533Z,1.60
2023-04-11T02:53:39.536Z,1.20
2023-04-11T02:54:39.512Z,1.20
2023-04-11T02:55:39.504Z,1.40
2023-04-11T02:56:39.530Z,1.20
2023-04-11T02:57:39.486Z,1.10
2023-04-11T02:58:39.465Z,1.20
2023-04-11T02:59:39.473Z,1.20
2023-04-11T03:00:39.446Z,1.20
2023-04-11T03:01:39.547Z,1.30
2023-04-11T03:02:39.605Z,1.10
2023-04-11T03:03:39.511Z,1.40
2023-04-11T03:04:39.534Z,1.20
2023-04-11T03:05:39.438Z,1.30
2023-04-11T03:06:39.417Z,1.30
2023-04-11T03:07:39.383Z,1.10
2023-04-11T03:08:39.365Z,1.30
2023-04-11T03:09:39.356Z,1.30
2023-04-11T03:10:39.339Z,1.40
2023-04-11T03:11:39.370Z,1.20
2023-04-11T03:12:39.320Z,1.40
2023-04-11T03:13:39.343Z,1.30
2023-04-11T03:14:39.311Z,1.30
2023-04-11T03:15:39.341Z,1.40
2023-04-11T03:16:39.869Z,1.40
2023-04-11T03:17:39.313Z,1.20
2023-04-11T03:18:39.265Z,1.80
2023-04-11T03:19:39.259Z,1.40
2023-04-11T03:20:39.261Z,1.10
2023-04-11T03:21:39.257Z,1.20
2023-04-11T03:22:39.222Z,1.00
2023-04-11T03:23:39.230Z,1.20
2023-04-11T03:24:39.206Z,1.20
2023-04-11T03:25:39.198Z,1.40
2023-04-11T03:26:39.209Z,1.20
2023-04-11T03:27:39.177Z,1.20
2023-04-11T03:28:39.175Z,1.40
2023-04-11T03:29:39.172Z,1.10
2023-04-11T03:30:39.136Z,1.40
2023-04-11T03:31:39.185Z,1.00
2023-04-11T03:32:39.182Z,1.00
2023-04-11T03:33:39.138Z,0.90
2023-04-11T03:34:39.108Z,1.10
2023-04-11T03:35:39.147Z,0.80
2023-04-11T03:36:39.079Z,1.40
2023-04-11T03:37:39.075Z,1.00
2023-04-11T03:38:39.059Z,1.30
2023-04-11T03:39:39.053Z,1.10
2023-04-11T03:40:39.060Z,1.30
2023-04-11T03:41:39.059Z,1.00
2023-04-11T03:42:39.012Z,1.00
2023-04-11T03:43:39.014Z,1.20
2023-04-11T03:44:38.997Z,0.90
2023-04-11T03:45:38.993Z,1.60
2023-04-11T03:46:39.018Z,0.90
2023-04-11T03:47:39.021Z,1.00
2023-04-11T03:48:38.948Z,1.00
2023-04-11T03:49:38.955Z,1.10
2023-04-11T03:50:38.948Z,0.80
2023-04-11T03:51:38.940Z,1.00
2023-04-11T03:52:38.920Z,0.90
2023-04-11T03:53:38.906Z,0.90
2023-04-11T03:54:38.892Z,1.10
2023-04-11T03:55:38.886Z,0.90
2023-04-11T03:56:38.903Z,1.10
2023-04-11T03:57:38.879Z,1.00
2023-04-11T03:58:38.917Z,1.00
2023-04-11T03:59:38.847Z,1.00
2023-04-11T04:00:38.869Z,0.80
2023-04-11T04:01:38.866Z,0.90
2023-04-11T04:02:38.956Z,0.70
2023-04-11T04:03:39.004Z,1.00
2023-04-11T04:04:38.969Z,0.80
2023-04-11T04:05:38.779Z,1.10
2023-04-11T04:06:38.762Z,0.80
2023-04-11T04:07:38.702Z,0.90
2023-04-11T04:08:38.692Z,1.00
2023-04-11T04:09:38.681Z,0.80
2023-04-11T04:10:38.671Z,1.10
2023-04-11T04:11:38.682Z,0.90
2023-04-11T04:12:38.693Z,1.10
2023-04-11T04:13:38.637Z,0.90
2023-04-11T04:14:38.646Z,1.00
2023-04-11T04:15:38.644Z,1.10
2023-04-11T04:16:38.701Z,0.80
2023-04-11T04:17:38.641Z,1.20
2023-04-11T04:18:38.585Z,1.00
2023-04-11T04:19:38.610Z,1.20
2023-04-11T04:20:38.567Z,1.00
2023-04-11T04:21:38.572Z,1.10
2023-04-11T04:22:38.567Z,1.30
2023-04-11T04:23:38.531Z,1.00
2023-04-11T04:24:38.570Z,1.30
2023-04-11T04:25:38.512Z,1.00
2023-04-11T04:26:39.121Z,1.20
2023-04-11T04:27:38.488Z,1.10
2023-04-11T04:28:38.489Z,1.30
2023-04-11T04:29:38.835Z,1.00
2023-04-11T04:30:38.465Z,1.00
2023-04-11T04:31:38.487Z,1.40
2023-04-11T04:32:38.568Z,1.10
2023-04-11T04:33:38.427Z,1.30
2023-04-11T04:34:38.429Z,1.00
2023-04-11T04:35:38.416Z,0.90
2023-04-11T04:36:38.419Z,1.10
2023-04-11T04:37:38.392Z,1.10
2023-04-11T04:38:38.532Z,1.20
2023-04-11T04:39:38.361Z,1.20
2023-04-11T04:40:38.385Z,1.50
2023-04-11T04:41:38.346Z,1.40
2023-04-11T04:42:38.357Z,1.00
2023-04-11T04:43:38.330Z,1.60
2023-04-11T04:44:38.345Z,1.20
2023-04-11T04:45:38.347Z,1.40
2023-04-11T04:46:38.302Z,1.20
2023-04-11T04:47:38.383Z,1.00
2023-04-11T04:48:38.293Z,1.30
2023-04-11T04:49:38.259Z,1.30
2023-04-11T04:50:38.254Z,1.50
2023-04-11T04:51:38.235Z,1.60
2023-04-11T04:52:38.287Z,1.50
2023-04-11T04:53:38.216Z,1.50
2023-04-11T04:54:38.213Z,1.30
2023-04-11T04:55:38.199Z,1.50
2023-04-11T04:56:38.249Z,1.50
2023-04-11T04:57:38.236Z,1.50
2023-04-11T04:58:38.246Z,1.40
2023-04-11T04:59:38.151Z,1.50
2023-04-11T05:00:38.157Z,1.40
2023-04-11T05:01:38.221Z,1.40
2023-04-11T05:02:38.276Z,1.60
2023-04-11T05:03:38.229Z,1.50
2023-04-11T05:04:38.116Z,1.10
2023-04-11T05:05:38.186Z,1.40
2023-04-11T05:06:38.086Z,1.20
2023-04-11T05:07:38.098Z,1.30
2023-04-11T05:08:38.068Z,1.40
2023-04-11T05:09:38.052Z,1.30
2023-04-11T05:10:38.053Z,1.20
2023-04-11T05:11:38.026Z,1.30
2023-04-11T05:12:38.039Z,1.50
2023-04-11T05:13:38.008Z,1.30
2023-04-11T05:14:38.017Z,1.50
2023-04-11T05:15:37.983Z,1.50
2023-04-11T05:16:38.073Z,1.10
2023-04-11T05:17:38.464Z,1.50
2023-04-11T05:18:37.963Z,1.40
2023-04-11T05:19:37.950Z,1.20
2023-04-11T05:20:37.955Z,1.00
2023-04-11T05:21:37.994Z,1.20
2023-04-11T05:22:38.013Z,1.40
2023-04-11T05:23:37.905Z,0.90
2023-04-11T05:24:37.909Z,1.40
2023-04-11T05:25:37.886Z,1.10
2023-04-11T05:26:37.895Z,1.70
2023-04-11T05:27:37.893Z,1.30
2023-04-11T05:28:37.872Z,1.10
2023-04-11T05:29:37.851Z,1.30
2023-04-11T05:30:37.898Z,1.00
2023-04-11T05:31:37.847Z,1.20
2023-04-11T05:32:37.877Z,1.30
2023-04-11T05:33:37.802Z,1.20
2023-04-11T05:34:37.792Z,1.10
2023-04-11T05:35:37.801Z,1.10
2023-04-11T05:36:37.777Z,1.30
2023-04-11T05:37:37.775Z,1.20
2023-04-11T05:38:37.757Z,1.50
2023-04-11T05:39:37.743Z,1.10
2023-04-11T05:40:37.831Z,1.30
2023-04-11T05:41:37.720Z,1.50
2023-04-11T05:42:37.949Z,1.30
2023-04-11T05:43:37.697Z,1.30
2023-04-11T05:44:37.688Z,1.40
2023-04-11T05:45:37.689Z,1.30
2023-04-11T05:46:37.800Z,1.30
2023-04-11T05:47:37.719Z,1.20
2023-04-11T05:48:37.655Z,1.90
2023-04-11T05:49:37.627Z,1.30
2023-04-11T05:50:37.626Z,1.60
2023-04-11T05:51:37.640Z,1.80
2023-04-11T05:52:37.622Z,1.20
2023-04-11T05:53:37.589Z,1.30
2023-04-11T05:54:37.607Z,1.20
2023-04-11T05:55:37.570Z,1.50
2023-04-11T05:56:37.584Z,1.20
2023-04-11T05:57:37.580Z,1.20
2023-04-11T05:58:37.560Z,1.10
2023-04-11T05:59:37.527Z,1.20
2023-04-11T06:00:37.523Z,1.00
2023-04-11T06:01:37.533Z,1.10
2023-04-11T06:02:37.671Z,1.30
2023-04-11T06:03:37.611Z,1.20
2023-04-11T06:04:37.567Z,1.40
2023-04-11T06:05:37.468Z,1.30
2023-04-11T06:06:37.463Z,1.10
2023-04-11T06:07:37.457Z,0.90
2023-04-11T06:08:37.434Z,1.20
2023-04-11T06:09:37.425Z,1.00
2023-04-11T06:10:37.420Z,1.20
2023-04-11T06:11:37.401Z,1.40
2023-04-11T06:12:37.421Z,1.20
2023-04-11T06:13:37.381Z,0.90
2023-04-11T06:14:40.142Z,1.10
2023-04-11T06:15:37.468Z,1.00
2023-04-11T06:16:37.363Z,1.30
2023-04-11T06:17:37.377Z,1.00
2023-04-11T06:18:37.337Z,0.80
2023-04-11T06:19:37.314Z,0.80
2023-04-11T06:20:37.329Z,1.00
2023-04-11T06:21:37.309Z,0.90
2023-04-11T06:22:37.342Z,0.80
2023-04-11T06:23:37.297Z,1.10
2023-04-11T06:24:37.286Z,1.00
2023-04-11T06:25:37.257Z,0.90
2023-04-11T06:26:37.337Z,1.10
2023-04-11T06:27:37.260Z,1.00
2023-04-11T06:28:37.232Z,1.00
2023-04-11T06:29:37.264Z,0.80
2023-04-11T06:30:37.205Z,0.90
2023-04-11T06:31:37.213Z,1.10
2023-04-11T06:32:37.258Z,0.80
2023-04-11T06:33:37.176Z,0.70
2023-04-11T06:34:37.178Z,0.90
2023-04-11T06:35:37.233Z,0.90
2023-04-11T06:36:37.149Z,0.80
2023-04-11T06:37:37.145Z,0.80
2023-04-11T06:38:37.133Z,0.80
2023-04-11T06:39:37.147Z,0.80
2023-04-11T06:40:37.111Z,0.90
2023-04-11T06:41:37.102Z,0.80
2023-04-11T06:42:37.156Z,0.80
2023-04-11T06:43:37.063Z,1.00
2023-04-11T06:44:37.077Z,0.60
2023-04-11T06:45:37.057Z,1.10
2023-04-11T06:46:37.114Z,1.00
2023-04-11T06:47:37.082Z,1.00
2023-04-11T06:48:37.153Z,1.20
2023-04-11T06:49:37.001Z,0.90
2023-04-11T06:50:37.019Z,1.20
2023-04-11T06:51:36.994Z,1.10
2023-04-11T06:52:37.081Z,1.30
2023-04-11T06:53:36.977Z,1.00
2023-04-11T06:54:36.960Z,1.20
2023-04-11T06:55:36.973Z,1.30
2023-04-11T06:56:36.952Z,1.10
2023-04-11T06:57:36.947Z,1.20
2023-04-11T06:58:37.010Z,1.20
2023-04-11T06:59:36.919Z,1.30
2023-04-11T07:00:36.930Z,1.30
2023-04-11T07:01:36.959Z,1.20
2023-04-11T07:02:37.105Z,1.20
2023-04-11T07:03:37.067Z,1.00
2023-04-11T07:04:36.962Z,1.20
2023-04-11T07:05:39.063Z,1.10
2023-04-11T07:06:36.850Z,1.10
2023-04-11T07:07:36.846Z,1.40
2023-04-11T07:08:36.892Z,1.30
2023-04-11T07:09:36.804Z,1.10
2023-04-11T07:10:36.802Z,1.40
2023-04-11T07:11:36.790Z,1.10
2023-04-11T07:12:36.795Z,1.20
2023-04-11T07:13:36.766Z,1.10
2023-04-11T07:14:37.411Z,1.00
2023-04-11T07:15:36.755Z,1.40
2023-04-11T07:16:36.960Z,1.30
2023-04-11T07:17:36.788Z,1.40
2023-04-11T07:18:36.720Z,1.10
2023-04-11T07:19:36.754Z,1.50
2023-04-11T07:20:36.734Z,1.10
2023-04-11T07:21:36.676Z,1.40
2023-04-11T07:22:36.693Z,1.30
2023-04-11T07:23:36.666Z,1.40
2023-04-11T07:24:36.673Z,1.30
2023-04-11T07:25:36.913Z,1.50
2023-04-11T07:26:36.659Z,1.60
2023-04-11T07:27:36.631Z,1.60
2023-04-11T07:28:36.610Z,1.40
2023-04-11T07:29:36.635Z,1.40
2023-04-11T07:30:36.622Z,1.30
2023-04-11T07:31:36.604Z,1.20
2023-04-11T07:32:36.609Z,1.60
2023-04-11T07:33:36.546Z,1.20
2023-04-11T07:34:36.551Z,1.60
2023-04-11T07:35:36.554Z,1.30
2023-04-11T07:36:36.543Z,1.40
2023-04-11T07:37:36.505Z,1.30
2023-04-11T07:38:36.503Z,1.70
2023-04-11T07:39:36.543Z,1.30
2023-04-11T07:40:36.499Z,1.60
2023-04-11T07:41:36.475Z,1.30
2023-04-11T07:42:36.472Z,1.60
2023-04-11T07:43:36.523Z,1.70
2023-04-11T07:44:36.453Z,1.30
2023-04-11T07:45:36.471Z,1.70
2023-04-11T07:46:36.450Z,1.30
2023-04-11T07:47:36.432Z,1.70
2023-04-11T07:48:36.403Z,1.30
2023-04-11T07:49:36.395Z,1.50
2023-04-11T07:50:36.398Z,1.40
2023-04-11T07:51:36.379Z,1.30
2023-04-11T07:52:36.352Z,1.80
2023-04-11T07:53:36.381Z,1.60
2023-04-11T07:54:36.349Z,1.50
2023-04-11T07:55:36.314Z,1.20
2023-04-11T07:56:36.326Z,1.30
2023-04-11T07:57:36.304Z,1.30
2023-04-11T07:58:36.291Z,1.70
2023-04-11T07:59:36.390Z,1.40
2023-04-11T08:00:36.278Z,1.70
2023-04-11T08:01:36.345Z,1.40
2023-04-11T08:02:36.351Z,1.80
2023-04-11T08:03:36.397Z,1.40
2023-04-11T08:04:36.452Z,1.20
2023-04-11T08:05:36.216Z,1.40
2023-04-11T08:06:36.221Z,1.60
2023-04-11T08:07:36.201Z,1.30
2023-04-11T08:08:36.190Z,1.60
2023-04-11T08:09:36.177Z,1.10
2023-04-11T08:10:36.172Z,1.20
2023-04-11T08:11:36.180Z,1.30
2023-04-11T08:12:36.142Z,1.20
2023-04-11T08:13:36.145Z,0.90
2023-04-11T08:14:36.196Z,1.00
2023-04-11T08:15:36.110Z,1.10
2023-04-11T08:16:36.140Z,0.90
2023-04-11T08:17:36.363Z,1.20
2023-04-11T08:18:36.082Z,0.90
2023-04-11T08:19:36.065Z,1.10
2023-04-11T08:20:36.218Z,1.10
2023-04-11T08:21:36.085Z,1.00
2023-04-11T08:22:36.057Z,1.10
2023-04-11T08:23:36.049Z,1.10
2023-04-11T08:24:36.015Z,1.40
2023-04-11T08:25:36.014Z,0.90
2023-04-11T08:26:36.043Z,1.20
2023-04-11T08:27:35.993Z,1.10
2023-04-11T08:28:35.992Z,1.30
2023-04-11T08:29:35.977Z,1.10
2023-04-11T08:30:35.984Z,1.40
2023-04-11T08:31:35.969Z,0.90
2023-04-11T08:32:35.961Z,1.50
2023-04-11T08:33:35.969Z,1.50
2023-04-11T08:34:35.908Z,1.10
2023-04-11T08:35:36.264Z,1.50
2023-04-11T08:36:35.924Z,1.20
2023-04-11T08:37:35.892Z,1.30
2023-04-11T08:38:35.888Z,0.90
2023-04-11T08:39:35.861Z,1.10
2023-04-11T08:40:35.847Z,1.00
2023-04-11T08:41:35.921Z,0.90
2023-04-11T08:42:35.830Z,1.30
2023-04-11T08:43:35.967Z,1.10
2023-04-11T08:44:35.832Z,1.10
2023-04-11T08:45:35.851Z,1.20
2023-04-11T08:46:35.832Z,1.10
2023-04-11T08:47:35.825Z,1.00
2023-04-11T08:48:35.847Z,1.00
2023-04-11T08:49:35.758Z,1.10
2023-04-11T08:50:35.747Z,1.40
2023-04-11T08:51:35.850Z,1.30
2023-04-11T08:52:35.718Z,1.30
2023-04-11T08:53:35.765Z,1.40
2023-04-11T08:54:35.745Z,1.50
2023-04-11T08:55:35.693Z,1.30
2023-04-11T08:56:35.718Z,1.60
2023-04-11T08:57:35.762Z,1.40
2023-04-11T08:58:35.662Z,1.60
2023-04-11T08:59:35.654Z,1.90
2023-04-11T09:00:35.666Z,1.70
2023-04-11T09:01:35.738Z,1.80
2023-04-11T09:02:35.872Z,1.90
2023-04-11T09:03:35.641Z,1.60
2023-04-11T09:04:35.643Z,1.70
2023-04-11T09:05:35.587Z,1.50
2023-04-11T09:06:35.636Z,1.40
2023-04-11T09:07:35.574Z,1.90
2023-04-11T09:08:35.561Z,1.60
2023-04-11T09:09:35.577Z,2.00
2023-04-11T09:10:35.553Z,1.40
2023-04-11T09:11:35.662Z,1.90
2023-04-11T09:12:35.515Z,1.60
2023-04-11T09:13:35.518Z,1.40
2023-04-11T09:14:35.529Z,1.90
2023-04-11T09:15:35.533Z,1.70
2023-04-11T09:16:35.856Z,1.80
2023-04-11T09:17:35.503Z,1.70
2023-04-11T09:18:35.450Z,1.70
2023-04-11T09:19:35.445Z,1.60
2023-04-11T09:20:35.499Z,1.50
2023-04-11T09:21:35.451Z,1.10
2023-04-11T09:22:35.412Z,1.40
2023-04-11T09:23:35.457Z,1.20
2023-04-11T09:24:36.003Z,1.30
2023-04-11T09:25:35.394Z,1.40
2023-04-11T09:26:35.394Z,1.50
2023-04-11T09:27:35.376Z,1.50
2023-04-11T09:28:35.357Z,1.40
2023-04-11T09:29:35.363Z,1.60
2023-04-11T09:30:35.337Z,1.30
2023-04-11T09:31:35.413Z,1.20
2023-04-11T09:32:35.386Z,1.50
2023-04-11T09:33:35.301Z,1.50
2023-04-11T09:34:35.293Z,1.90
2023-04-11T09:35:35.320Z,1.50
2023-04-11T09:36:35.286Z,1.50
2023-04-11T09:37:35.281Z,1.50
2023-04-11T09:38:35.250Z,1.30
2023-04-11T09:39:35.246Z,1.40
2023-04-11T09:40:35.238Z,1.70
2023-04-11T09:41:35.400Z,1.60
2023-04-11T09:42:35.261Z,2.10
2023-04-11T09:43:35.592Z,1.60
2023-04-11T09:44:35.275Z,1.30
2023-04-11T09:45:44.126Z,1.20
2023-04-11T09:46:35.414Z,1.60
2023-04-11T09:47:35.989Z,1.20
2023-04-11T09:49:01.672Z,1.30
2023-04-11T09:49:35.163Z,1.30
2023-04-11T09:50:35.114Z,1.20
2023-04-11T09:51:36.856Z,1.70
2023-04-11T09:52:35.148Z,1.40
2023-04-11T09:53:35.095Z,1.60
2023-04-11T09:54:35.112Z,1.50
2023-04-11T09:55:35.151Z,1.50
2023-04-11T09:56:35.508Z,1.30
2023-04-11T09:57:35.058Z,1.50
2023-04-11T09:58:35.049Z,1.60
2023-04-11T09:59:35.045Z,1.60
2023-04-11T10:00:35.031Z,1.90
2023-04-11T10:01:35.082Z,1.70
2023-04-11T10:02:35.099Z,1.60
2023-04-11T10:03:35.070Z,1.70
2023-04-11T10:04:34.994Z,1.70
2023-04-11T10:05:35.000Z,1.60
2023-04-11T10:06:35.858Z,1.70
2023-04-11T10:07:34.984Z,1.50
2023-04-11T10:08:34.924Z,1.50
2023-04-11T10:09:34.951Z,1.70
2023-04-11T10:10:34.905Z,1.40
2023-04-11T10:11:34.948Z,1.60
2023-04-11T10:12:34.954Z,1.50
2023-04-11T10:13:34.955Z,1.70
2023-04-11T10:14:34.868Z,1.40
2023-04-11T10:15:34.902Z,1.40
2023-04-11T10:16:34.872Z,1.50
2023-04-11T10:17:34.859Z,1.50
2023-04-11T10:18:34.832Z,1.40
2023-04-11T10:19:34.828Z,1.50
2023-04-11T10:20:34.798Z,1.50
2023-04-11T10:21:34.822Z,1.40
2023-04-11T10:22:34.783Z,1.30
2023-04-11T10:23:34.789Z,1.60
2023-04-11T10:24:34.756Z,1.50
2023-04-11T10:25:34.780Z,1.30
2023-04-11T10:26:34.764Z,1.30
2023-04-11T10:27:34.727Z,1.70
2023-04-11T10:28:34.714Z,1.60
2023-04-11T10:29:34.752Z,1.80
2023-04-11T10:30:34.802Z,1.90
2023-04-11T10:31:34.697Z,1.40
2023-04-11T10:32:34.768Z,1.40
2023-04-11T10:33:34.687Z,1.70
2023-04-11T10:34:34.681Z,1.40
2023-04-11T10:35:34.677Z,1.30
2023-04-11T10:36:34.647Z,1.30
2023-04-11T10:37:34.644Z,1.30
2023-04-11T10:38:34.624Z,1.10
2023-04-11T10:39:34.604Z,1.20
2023-04-11T10:40:34.601Z,1.30
2023-04-11T10:41:34.662Z,1.20
2023-04-11T10:42:34.589Z,1.10
2023-04-11T10:43:34.858Z,1.50
2023-04-11T10:44:34.551Z,1.40
2023-04-11T10:45:34.991Z,1.20
2023-04-11T10:46:34.569Z,1.10
2023-04-11T10:47:34.536Z,1.40
2023-04-11T10:48:34.533Z,1.20
2023-04-11T10:49:34.506Z,1.10
2023-04-11T10:50:34.521Z,1.10
2023-04-11T10:51:34.562Z,1.20
2023-04-11T10:52:34.466Z,1.00
2023-04-11T10:53:34.455Z,1.00
2023-04-11T10:54:34.493Z,1.40
2023-04-11T10:55:34.466Z,1.40
2023-04-11T10:56:34.422Z,0.90
2023-04-11T10:57:34.587Z,1.40
2023-04-11T10:58:34.522Z,1.20
2023-04-11T10:59:34.480Z,0.90
2023-04-11T11:00:35.107Z,1.10
2023-04-11T11:02:34.486Z,0.90
2023-04-11T11:03:34.697Z,0.90
2023-04-11T11:04:34.561Z,1.10
2023-04-11T11:05:34.342Z,1.10
2023-04-11T11:06:38.107Z,0.80
2023-04-11T11:07:34.356Z,0.80
2023-04-11T11:08:34.350Z,0.80
2023-04-11T11:09:34.325Z,1.20
2023-04-11T11:10:34.326Z,0.80
2023-04-11T11:11:34.293Z,0.90
2023-04-11T11:12:34.251Z,1.10
2023-04-11T11:13:34.262Z,1.30
2023-04-11T11:14:34.242Z,0.90
2023-04-11T11:15:34.228Z,0.90
2023-04-11T11:16:34.236Z,0.70
2023-04-11T11:17:34.720Z,1.10
2023-04-11T11:18:34.198Z,0.70
2023-04-11T11:19:34.310Z,1.00
2023-04-11T11:20:34.291Z,1.00
2023-04-11T11:21:34.174Z,0.90
2023-04-11T11:22:34.151Z,0.80
2023-04-11T11:23:34.972Z,1.00
2023-04-11T11:24:34.179Z,0.90
2023-04-11T11:25:34.127Z,0.90
2023-04-11T11:26:34.198Z,0.90
2023-04-11T11:27:34.099Z,0.80
2023-04-11T11:28:34.112Z,0.80
2023-04-11T11:29:34.142Z,0.80
2023-04-11T11:30:34.067Z,0.90
2023-04-11T11:31:34.159Z,0.90
2023-04-11T11:32:34.223Z,1.10
2023-04-11T11:33:34.037Z,0.90
2023-04-11T11:34:34.014Z,1.20
2023-04-11T11:35:34.060Z,1.20
2023-04-11T11:36:34.036Z,0.80
2023-04-11T11:37:34.008Z,0.90
2023-04-11T11:38:34.010Z,1.20
2023-04-11T11:39:33.992Z,0.90
2023-04-11T11:40:33.952Z,0.90
2023-04-11T11:41:33.976Z,1.30
2023-04-11T11:42:33.946Z,1.10
2023-04-11T11:43:33.932Z,1.00
2023-04-11T11:44:33.906Z,1.00
2023-04-11T11:45:33.913Z,0.90
2023-04-11T11:46:33.989Z,0.90
2023-04-11T11:47:33.907Z,1.00
2023-04-11T11:48:33.866Z,1.00
2023-04-11T11:49:33.868Z,0.80
2023-04-11T11:50:33.984Z,0.90
2023-04-11T11:51:33.863Z,1.00
2023-04-11T11:52:33.913Z,1.10
2023-04-11T11:53:33.862Z,1.40
2023-04-11T11:54:33.832Z,1.20
2023-04-11T11:55:33.924Z,1.20
2023-04-11T11:56:33.809Z,1.20
2023-04-11T11:57:33.895Z,1.10
2023-04-11T11:58:33.771Z,1.30
2023-04-11T11:59:33.771Z,0.90
2023-04-11T12:00:33.752Z,1.10
2023-04-11T12:01:33.840Z,1.30
2023-04-11T12:02:33.893Z,1.20
2023-04-11T12:03:33.829Z,1.20
2023-04-11T12:04:33.913Z,1.30
2023-04-11T12:05:33.850Z,1.40
2023-04-11T12:06:33.700Z,1.30
2023-04-11T12:07:33.701Z,1.10
2023-04-11T12:08:33.680Z,1.40
2023-04-11T12:09:33.691Z,1.10
2023-04-11T12:10:33.643Z,1.10
2023-04-11T12:11:33.657Z,1.50
2023-04-11T12:12:33.615Z,1.30
2023-04-11T12:13:33.613Z,1.30
2023-04-11T12:14:33.636Z,1.10
2023-04-11T12:15:33.614Z,1.30
2023-04-11T12:16:33.653Z,1.20
2023-04-11T12:17:35.309Z,1.00
2023-04-11T12:18:33.561Z,1.10
2023-04-11T12:19:33.572Z,1.30
2023-04-11T12:20:33.545Z,1.10
2023-04-11T12:21:33.558Z,1.10
2023-04-11T12:22:33.526Z,1.30
2023-04-11T12:23:33.509Z,0.90
2023-04-11T12:24:33.496Z,0.90
2023-04-11T12:25:33.491Z,1.10
2023-04-11T12:26:33.504Z,0.90
2023-04-11T12:27:33.476Z,0.90
2023-04-11T12:28:33.479Z,0.90
2023-04-11T12:29:33.440Z,1.20
2023-04-11T12:30:33.457Z,0.90
2023-04-11T12:31:33.461Z,0.70
2023-04-11T12:32:33.476Z,0.80
2023-04-11T12:33:33.433Z,1.00
2023-04-11T12:34:33.388Z,0.90
2023-04-11T12:35:33.450Z,0.80
2023-04-11T12:37:33.365Z,0.80
2023-04-11T12:38:33.342Z,0.90
2023-04-11T12:39:33.346Z,0.90
2023-04-11T12:40:33.339Z,0.80
2023-04-11T12:41:33.341Z,0.70
2023-04-11T12:42:36.674Z,0.80
2023-04-11T12:43:33.320Z,0.60
2023-04-11T12:44:33.285Z,0.90
2023-04-11T12:45:33.332Z,0.70
2023-04-11T12:46:33.966Z,0.80
2023-04-11T12:47:33.277Z,0.70
2023-04-11T12:48:33.267Z,0.90
2023-04-11T12:49:33.248Z,0.80
2023-04-11T12:50:33.229Z,0.90
2023-04-11T12:51:33.234Z,0.80
2023-04-11T12:52:33.218Z,0.90
2023-04-11T12:53:33.190Z,1.00
2023-04-11T12:54:33.186Z,1.00
2023-04-11T12:55:34.042Z,0.90
2023-04-11T12:56:33.206Z,1.00
2023-04-11T12:57:33.155Z,1.10
2023-04-11T12:58:33.136Z,1.00
2023-04-11T12:59:33.122Z,0.90
2023-04-11T13:00:33.197Z,1.00
2023-04-11T13:01:33.175Z,0.80
2023-04-11T13:02:41.657Z,1.00
2023-04-11T13:03:33.455Z,1.20
2023-04-11T13:04:33.260Z,1.10
2023-04-11T13:05:33.097Z,0.80
2023-04-11T13:06:33.072Z,0.90
2023-04-11T13:07:33.125Z,0.80
2023-04-11T13:08:33.036Z,0.90
2023-04-11T13:09:33.048Z,1.20
2023-04-11T13:10:33.033Z,0.80
2023-04-11T13:11:33.075Z,0.80
2023-04-11T13:12:33.022Z,0.90
2023-04-11T13:13:32.987Z,0.80
2023-04-11T13:14:33.024Z,0.70
2023-04-11T13:15:32.960Z,0.90
2023-04-11T13:16:34.047Z,1.30
2023-04-11T13:17:32.987Z,1.00
2023-04-11T13:18:32.933Z,0.80
2023-04-11T13:19:32.926Z,0.70
2023-04-11T13:20:32.946Z,0.90